Time;durP1;ratioP1;P1;durP2;ratioP2;P2;SDS_P1;SDS_P2;PMS_P1;PMS_P2;Temp;Humidity;BMP_temperature;BMP_pressure;BME280_temperature;BME280_humidity;BME280_pressure;Samples;Min_cycle;Max_cycle;Signal;HPM_P1;HPM_P2
2023/09/22 00:00:28;;;;;;;20.80;4.75;;;35.30;28.50;;;;;;5062214;28;20077;-69
2023/09/22 00:02:55;;;;;;;22.23;4.95;;;35.30;29.10;;;;;;5063917;28;21976;-68
2023/09/22 00:05:23;;;;;;;51.90;21.05;;;35.30;29.30;;;;;;5054783;28;20055;-70
2023/09/22 00:07:50;;;;;;;41.17;21.02;;;35.20;28.20;;;;;;5063427;28;20016;-68
2023/09/22 00:10:17;;;;;;;44.03;20.65;;;35.20;27.90;;;;;;5056868;28;20024;-70
2023/09/22 00:12:44;;;;;;;45.42;21.33;;;35.20;28.50;;;;;;5057613;28;20099;-71
2023/09/22 00:15:10;;;;;;;28.83;4.68;;;35.20;28.60;;;;;;5059010;28;20017;-70
2023/09/22 00:17:37;;;;;;;24.70;4.30;;;35.10;29.10;;;;;;5058947;28;20549;-68
2023/09/22 00:20:08;;;;;;;42.03;12.48;;;35.10;29.20;;;;;;5054931;28;20021;-70
2023/09/22 00:22:34;;;;;;;24.60;4.78;;;35.10;28.20;;;;;;5061889;28;20404;-69
2023/09/22 00:25:02;;;;;;;23.23;4.43;;;35.00;29.00;;;;;;5062917;28;20029;-69
2023/09/22 00:27:29;;;;;;;25.42;5.47;;;35.00;29.00;;;;;;5058912;28;20020;-68
2023/09/22 00:29:55;;;;;;;24.05;5.38;;;35.00;28.60;;;;;;5064739;28;20016;-70
2023/09/22 00:32:21;;;;;;;16.38;4.20;;;34.90;28.70;;;;;;5060301;28;20369;-71
2023/09/22 00:34:48;;;;;;;18.70;3.90;;;35.00;28.90;;;;;;5065913;28;20017;-70
2023/09/22 00:37:14;;;;;;;14.85;4.22;;;34.90;28.20;;;;;;5063315;28;20047;-73
2023/09/22 00:39:41;;;;;;;24.42;4.30;;;34.90;28.30;;;;;;5064836;28;20048;-66
2023/09/22 00:42:08;;;;;;;21.10;4.63;;;34.80;29.30;;;;;;5066508;28;20013;-65
2023/09/22 00:44:35;;;;;;;22.63;4.20;;;34.80;29.10;;;;;;5066080;28;20060;-63
2023/09/22 00:47:04;;;;;;;20.23;3.55;;;34.70;28.70;;;;;;5066171;28;20016;-64
2023/09/22 00:49:31;;;;;;;25.60;3.95;;;34.70;29.40;;;;;;5061935;28;20019;-65
2023/09/22 00:51:58;;;;;;;21.67;3.80;;;34.60;30.50;;;;;;5060943;28;20105;-63
2023/09/22 00:54:25;;;;;;;17.23;3.80;;;34.60;30.20;;;;;;5058162;28;20381;-65
2023/09/22 00:56:52;;;;;;;10.75;3.58;;;34.60;29.40;;;;;;5058790;28;20082;-65
2023/09/22 00:59:19;;;;;;;15.05;3.38;;;34.50;29.60;;;;;;5066412;28;20016;-66
2023/09/22 01:01:45;;;;;;;11.68;3.50;;;34.40;29.80;;;;;;5060648;28;20404;-66
2023/09/22 01:04:13;;;;;;;19.58;11.77;;;34.30;29.70;;;;;;5052993;28;20481;-64
2023/09/22 01:06:39;;;;;;;26.30;20.45;;;34.30;29.10;;;;;;5041465;28;20071;-63
2023/09/22 01:09:06;;;;;;;15.68;4.80;;;34.20;30.00;;;;;;5057948;28;20495;-66
2023/09/22 01:11:34;;;;;;;15.07;4.82;;;34.10;30.20;;;;;;5061637;28;20016;-65
2023/09/22 01:14:01;;;;;;;12.65;4.38;;;34.00;29.80;;;;;;5065828;28;20095;-64
2023/09/22 01:16:29;;;;;;;15.00;4.68;;;34.00;30.90;;;;;;5066799;28;20023;-63
2023/09/22 01:18:57;;;;;;;17.70;6.55;;;33.90;31.80;;;;;;5064915;28;20419;-64
2023/09/22 01:21:31;;;;;;;19.05;6.55;;;33.80;32.30;;;;;;5062920;28;20036;-65
2023/09/22 01:23:58;;;;;;;18.80;6.85;;;33.80;33.60;;;;;;5068741;28;20511;-64
2023/09/22 01:26:24;;;;;;;14.23;6.57;;;33.70;33.80;;;;;;5070436;28;20016;-64
2023/09/22 01:28:51;;;;;;;16.42;7.22;;;33.50;34.80;;;;;;5069705;28;20015;-64
2023/09/22 01:31:17;;;;;;;16.80;6.80;;;33.40;34.90;;;;;;5069226;28;20354;-64
2023/09/22 01:33:46;;;;;;;13.95;7.20;;;33.30;34.30;;;;;;5070252;28;20508;-62
2023/09/22 01:36:13;;;;;;;21.42;7.72;;;33.30;34.80;;;;;;5063137;28;20056;-64
2023/09/22 01:38:40;;;;;;;24.23;8.55;;;33.20;35.40;;;;;;5065997;28;20074;-64
2023/09/22 01:41:11;;;;;;;18.90;6.75;;;33.10;35.60;;;;;;5062720;28;20020;-65
2023/09/22 01:43:39;;;;;;;30.27;7.78;;;33.00;36.30;;;;;;5069352;28;20476;-62
2023/09/22 01:46:06;;;;;;;20.25;8.05;;;32.90;36.60;;;;;;5067841;28;20021;-62
2023/09/22 01:48:33;;;;;;;25.33;8.95;;;32.90;36.70;;;;;;5066580;28;20357;-61
2023/09/22 01:51:02;;;;;;;19.40;8.00;;;32.90;37.00;;;;;;5064275;28;20496;-60
2023/09/22 01:53:29;;;;;;;18.83;8.98;;;32.80;37.30;;;;;;5066656;28;20070;-60
2023/09/22 01:55:55;;;;;;;16.15;8.55;;;32.70;37.40;;;;;;5064310;28;20013;-59
2023/09/22 01:58:22;;;;;;;26.65;9.95;;;32.70;37.70;;;;;;5064728;28;20023;-59
2023/09/22 02:00:49;;;;;;;24.80;9.88;;;32.60;39.00;;;;;;5062805;28;20025;-61
2023/09/22 02:03:15;;;;;;;22.90;9.60;;;32.50;39.70;;;;;;5043909;28;20470;-60
2023/09/22 02:05:42;;;;;;;21.77;10.75;;;32.40;39.90;;;;;;5063472;28;20016;-60
2023/09/22 02:08:08;;;;;;;31.00;11.13;;;32.30;39.40;;;;;;5066110;28;20377;-59
2023/09/22 02:10:35;;;;;;;28.10;12.75;;;32.30;39.40;;;;;;5062308;28;20009;-59
2023/09/22 02:13:01;;;;;;;27.02;10.43;;;32.20;38.70;;;;;;5054747;28;20021;-61
2023/09/22 02:15:28;;;;;;;24.38;10.30;;;32.20;39.10;;;;;;5068504;28;20017;-61
2023/09/22 02:17:54;;;;;;;18.30;10.07;;;32.10;38.60;;;;;;5070247;28;20038;-61
2023/09/22 02:20:23;;;;;;;28.58;11.07;;;32.00;38.70;;;;;;5069658;28;20043;-61
2023/09/22 02:22:55;;;;;;;24.02;10.88;;;32.00;39.00;;;;;;5065656;28;20024;-61
2023/09/22 02:25:22;;;;;;;23.63;10.70;;;32.00;37.80;;;;;;5067400;28;20017;-60
2023/09/22 02:27:53;;;;;;;22.65;10.57;;;32.00;38.10;;;;;;5068190;28;20097;-62
2023/09/22 02:30:21;;;;;;;28.60;11.38;;;31.90;37.50;;;;;;5068808;28;20100;-60
2023/09/22 02:32:49;;;;;;;34.67;12.20;;;31.90;37.70;;;;;;5062325;28;20028;-60
2023/09/22 02:35:22;;;;;;;26.88;11.80;;;31.90;37.60;;;;;;5068798;28;20062;-61
2023/09/22 02:37:49;;;;;;;17.98;10.75;;;31.80;37.50;;;;;;5065826;28;20041;-60
2023/09/22 02:40:15;;;;;;;25.52;11.00;;;31.70;37.50;;;;;;5058657;28;20143;-62
2023/09/22 02:42:43;;;;;;;23.85;10.55;;;31.60;37.20;;;;;;5066706;28;20060;-61
2023/09/22 02:45:10;;;;;;;21.23;11.13;;;31.50;37.00;;;;;;5068251;28;20024;-60
2023/09/22 02:47:38;;;;;;;25.13;11.52;;;31.40;37.30;;;;;;5066856;28;20040;-60
2023/09/22 02:50:08;;;;;;;25.02;11.65;;;31.30;37.70;;;;;;5061173;28;20024;-62
2023/09/22 02:52:34;;;;;;;18.48;10.13;;;31.30;38.10;;;;;;5064667;28;20108;-61
2023/09/22 02:55:03;;;;;;;23.40;10.82;;;31.30;38.20;;;;;;5061804;28;20432;-61
2023/09/22 02:57:29;;;;;;;25.90;11.07;;;31.20;38.30;;;;;;5067531;28;20032;-60
2023/09/22 02:59:56;;;;;;;21.60;11.60;;;31.20;38.80;;;;;;5068717;28;20103;-55
2023/09/22 03:02:22;;;;;;;21.50;10.05;;;31.10;39.50;;;;;;5066309;28;20463;-57
2023/09/22 03:04:49;;;;;;;27.23;11.68;;;31.00;40.10;;;;;;5060093;28;20032;-57
2023/09/22 03:07:15;;;;;;;28.90;12.40;;;31.00;40.90;;;;;;5065447;28;20104;-61
2023/09/22 03:09:42;;;;;;;31.85;11.98;;;30.80;41.40;;;;;;5068270;28;20469;-58
2023/09/22 03:12:08;;;;;;;25.00;11.13;;;30.70;42.20;;;;;;5068289;28;20015;-58
2023/09/22 03:14:34;;;;;;;19.73;11.77;;;30.70;42.60;;;;;;5068175;28;20070;-59
2023/09/22 03:17:01;;;;;;;31.75;11.80;;;30.60;43.20;;;;;;5065511;28;20025;-57
2023/09/22 03:19:28;;;;;;;34.30;11.15;;;30.50;43.30;;;;;;5067307;28;20086;-60
2023/09/22 03:21:55;;;;;;;27.63;10.65;;;30.50;43.60;;;;;;5067107;28;20008;-57
2023/09/22 03:24:21;;;;;;;29.48;11.15;;;30.40;43.60;;;;;;5059492;28;20040;-57
2023/09/22 03:26:48;;;;;;;26.58;11.23;;;30.30;43.90;;;;;;5062090;28;20012;-58
2023/09/22 03:29:14;;;;;;;28.67;11.57;;;30.20;44.20;;;;;;5067315;28;20537;-62
2023/09/22 03:31:41;;;;;;;28.10;10.73;;;30.10;44.20;;;;;;5066106;28;20017;-59
2023/09/22 03:34:08;;;;;;;21.55;10.60;;;30.10;44.50;;;;;;5067457;28;20023;-60
2023/09/22 03:36:35;;;;;;;32.90;12.65;;;30.00;44.70;;;;;;5066578;28;20541;-60
2023/09/22 03:39:03;;;;;;;24.38;11.02;;;29.90;44.80;;;;;;5062499;28;20484;-58
2023/09/22 03:41:29;;;;;;;31.02;13.18;;;29.90;44.70;;;;;;5057453;28;20021;-57
2023/09/22 03:43:56;;;;;;;35.28;15.27;;;29.90;44.90;;;;;;5065560;28;20067;-58
2023/09/22 03:46:23;;;;;;;30.90;11.48;;;29.80;44.70;;;;;;5065925;28;20031;-58
2023/09/22 03:48:50;;;;;;;32.17;12.93;;;29.80;44.10;;;;;;5068760;28;20037;-58
2023/09/22 03:51:16;;;;;;;31.98;12.23;;;29.80;44.70;;;;;;5063994;28;20040;-60
2023/09/22 03:53:44;;;;;;;22.38;10.75;;;29.80;44.00;;;;;;5062866;28;20046;-57
2023/09/22 03:56:11;;;;;;;29.65;10.63;;;29.70;44.30;;;;;;5063979;28;20024;-63
2023/09/22 03:58:37;;;;;;;21.92;10.18;;;29.60;44.60;;;;;;5067190;28;20021;-60
2023/09/22 04:01:13;;;;;;;16.45;10.45;;;29.60;45.00;;;;;;5067495;28;20131;-60
2023/09/22 04:03:40;;;;;;;23.50;10.57;;;29.60;45.30;;;;;;5060001;28;20029;-60
2023/09/22 04:06:06;;;;;;;29.48;11.02;;;29.50;45.40;;;;;;5067978;28;20078;-60
2023/09/22 04:08:33;;;;;;;17.42;10.82;;;29.50;45.50;;;;;;5064477;28;20069;-61
2023/09/22 04:11:02;;;;;;;26.30;11.18;;;29.50;45.50;;;;;;5066328;28;20009;-59
2023/09/22 04:13:30;;;;;;;23.92;11.13;;;29.50;45.40;;;;;;5064197;28;20052;-59
2023/09/22 04:16:04;;;;;;;27.73;11.13;;;29.40;45.50;;;;;;5066435;28;20016;-62
2023/09/22 04:18:30;;;;;;;31.58;11.25;;;29.40;46.10;;;;;;5067575;28;20031;-60
2023/09/22 04:20:58;;;;;;;20.75;11.43;;;29.30;46.30;;;;;;5058505;28;20021;-61
2023/09/22 04:23:25;;;;;;;24.40;11.63;;;29.30;46.60;;;;;;5066691;28;20041;-61
2023/09/22 04:25:55;;;;;;;29.38;11.60;;;29.10;46.70;;;;;;5055050;28;20005;-60
2023/09/22 04:28:25;;;;;;;26.60;11.68;;;29.10;46.50;;;;;;5062850;28;20066;-61
2023/09/22 04:30:55;;;;;;;27.88;10.63;;;29.00;46.60;;;;;;5065007;28;20016;-62
2023/09/22 04:33:21;;;;;;;21.00;10.70;;;28.90;46.30;;;;;;5063551;28;20115;-59
2023/09/22 04:35:48;;;;;;;24.65;11.15;;;28.90;46.20;;;;;;5067057;28;20021;-61
2023/09/22 04:38:15;;;;;;;16.65;9.20;;;28.90;46.00;;;;;;5061418;28;20012;-61
2023/09/22 04:40:41;;;;;;;21.42;10.18;;;28.80;46.20;;;;;;5064465;28;20012;-62
2023/09/22 04:43:08;;;;;;;17.35;9.60;;;28.70;46.30;;;;;;5064193;28;20333;-60
2023/09/22 04:45:41;;;;;;;19.50;9.82;;;28.70;46.30;;;;;;5064395;28;20036;-60
2023/09/22 04:48:09;;;;;;;21.55;10.52;;;28.60;46.60;;;;;;5064592;28;20012;-61
2023/09/22 04:50:36;;;;;;;27.63;11.50;;;28.50;46.70;;;;;;5060032;28;20009;-63
2023/09/22 04:53:04;;;;;;;27.58;10.70;;;28.50;46.50;;;;;;5054487;28;20017;-63
2023/09/22 04:55:35;;;;;;;23.85;10.25;;;28.40;46.80;;;;;;5059554;28;20029;-62
2023/09/22 04:58:08;;;;;;;17.48;9.07;;;28.40;47.40;;;;;;5063469;28;20068;-63
2023/09/22 05:00:36;;;;;;;26.17;10.07;;;28.30;47.20;;;;;;5055372;28;20024;-64
2023/09/22 05:03:07;;;;;;;20.42;9.20;;;28.30;47.00;;;;;;5058477;28;20056;-64
2023/09/22 05:05:34;;;;;;;17.70;9.00;;;28.20;47.30;;;;;;5059402;28;20077;-64
2023/09/22 05:08:00;;;;;;;24.30;9.88;;;28.20;47.20;;;;;;5060278;28;20020;-63
2023/09/22 05:10:27;;;;;;;21.20;9.20;;;28.20;47.30;;;;;;5062029;28;20024;-61
2023/09/22 05:12:54;;;;;;;34.35;10.23;;;28.20;47.60;;;;;;5062219;28;20028;-62
2023/09/22 05:15:21;;;;;;;41.78;10.18;;;28.10;48.40;;;;;;5064918;28;20111;-61
2023/09/22 05:17:47;;;;;;;36.78;11.10;;;28.00;48.00;;;;;;5063322;28;20025;-62
2023/09/22 05:20:13;;;;;;;29.58;9.95;;;27.90;48.30;;;;;;5058355;28;20009;-61
2023/09/22 05:22:41;;;;;;;15.48;8.93;;;27.80;48.30;;;;;;5062845;28;20015;-63
2023/09/22 05:25:08;;;;;;;25.13;10.15;;;27.80;48.20;;;;;;5061056;28;20032;-59
2023/09/22 05:27:37;;;;;;;18.27;9.60;;;27.70;48.40;;;;;;5061963;28;20073;-60
2023/09/22 05:30:06;;;;;;;60.83;13.23;;;27.70;48.30;;;;;;5060859;28;20152;-62
2023/09/22 05:32:32;;;;;;;51.45;11.73;;;27.80;48.30;;;;;;5055325;28;20021;-63
2023/09/22 05:34:59;;;;;;;21.85;8.98;;;27.70;48.40;;;;;;5060015;28;20445;-64
2023/09/22 05:37:26;;;;;;;19.38;9.27;;;27.70;48.60;;;;;;5058538;28;20483;-65
2023/09/22 05:39:53;;;;;;;22.95;9.40;;;27.60;48.70;;;;;;5050885;28;20029;-65
2023/09/22 05:42:19;;;;;;;25.30;9.45;;;27.60;48.70;;;;;;5055461;28;20028;-64
2023/09/22 05:44:46;;;;;;;17.33;9.25;;;27.60;48.70;;;;;;5059121;28;20078;-63
2023/09/22 05:47:13;;;;;;;21.65;10.40;;;27.50;48.80;;;;;;5056660;28;20047;-63
2023/09/22 05:49:39;;;;;;;26.02;10.20;;;27.50;49.20;;;;;;5059464;28;20039;-64
2023/09/22 05:52:06;;;;;;;25.08;10.57;;;27.40;49.40;;;;;;5057285;28;20115;-66
2023/09/22 05:54:32;;;;;;;20.25;11.00;;;27.30;49.40;;;;;;5057818;28;20303;-65
2023/09/22 05:56:59;;;;;;;24.98;10.15;;;27.30;49.10;;;;;;5055737;28;20480;-64
2023/09/22 05:59:30;;;;;;;20.35;9.50;;;27.30;49.00;;;;;;5063652;28;20048;-65
2023/09/22 06:01:59;;;;;;;18.23;10.05;;;27.20;49.20;;;;;;5060503;28;20592;-63
2023/09/22 06:04:30;;;;;;;29.70;11.55;;;27.00;49.20;;;;;;5057705;28;20076;-63
2023/09/22 06:06:56;;;;;;;20.83;10.10;;;27.00;49.30;;;;;;5067292;28;20043;-62
2023/09/22 06:09:23;;;;;;;26.20;10.57;;;27.10;49.30;;;;;;5068869;28;20015;-64
2023/09/22 06:11:49;;;;;;;19.90;10.30;;;27.10;49.20;;;;;;5064516;28;20570;-63
2023/09/22 06:14:16;;;;;;;25.40;10.40;;;27.10;50.00;;;;;;5062751;28;20393;-63
2023/09/22 06:16:43;;;;;;;17.08;10.18;;;27.10;49.50;;;;;;5057950;28;20138;-61
2023/09/22 06:19:10;;;;;;;26.67;10.32;;;27.00;49.10;;;;;;5062846;28;20046;-64
2023/09/22 06:21:38;;;;;;;20.10;10.60;;;27.00;48.80;;;;;;5062613;28;20346;-62
2023/09/22 06:24:06;;;;;;;20.73;10.55;;;27.00;49.40;;;;;;5065932;28;20141;-62
2023/09/22 06:26:33;;;;;;;18.13;9.93;;;27.00;49.20;;;;;;5065953;28;20476;-63
2023/09/22 06:28:59;;;;;;;27.77;10.43;;;26.90;49.20;;;;;;5062920;28;20121;-62
2023/09/22 06:31:25;;;;;;;25.10;10.70;;;26.90;49.00;;;;;;5061414;28;20052;-62
2023/09/22 06:33:52;;;;;;;22.17;10.13;;;26.80;48.80;;;;;;5062166;28;20039;-62
2023/09/22 06:36:18;;;;;;;25.52;11.07;;;26.90;48.70;;;;;;5060907;28;20112;-65
2023/09/22 06:38:45;;;;;;;26.40;10.63;;;26.70;49.30;;;;;;5059987;28;20050;-62
2023/09/22 06:41:18;;;;;;;22.65;11.07;;;26.70;49.20;;;;;;5059827;28;20055;-61
2023/09/22 06:43:45;;;;;;;25.10;11.32;;;26.70;48.90;;;;;;5062666;28;20140;-62
2023/09/22 06:46:11;;;;;;;22.27;10.88;;;26.70;48.90;;;;;;5062441;28;20508;-62
2023/09/22 06:48:38;;;;;;;24.92;10.13;;;26.60;49.30;;;;;;5060041;28;20120;-62
2023/09/22 06:51:06;;;;;;;20.70;10.60;;;26.60;49.30;;;;;;5059833;28;20520;-63
2023/09/22 06:53:36;;;;;;;32.78;10.55;;;26.50;49.10;;;;;;5061360;28;20024;-62
2023/09/22 06:56:08;;;;;;;23.50;10.73;;;26.50;49.20;;;;;;5060516;28;20081;-65
2023/09/22 06:58:37;;;;;;;22.73;9.68;;;26.30;49.40;;;;;;5062996;28;20080;-62
2023/09/22 07:01:11;;;;;;;18.45;9.88;;;26.30;49.70;;;;;;5060779;28;20113;-62
2023/09/22 07:03:45;;;;;;;22.85;9.73;;;26.30;49.50;;;;;;5062376;28;20071;-63
2023/09/22 07:06:15;;;;;;;22.42;10.15;;;26.40;49.50;;;;;;5062303;28;20429;-63
2023/09/22 07:08:45;;;;;;;22.67;9.95;;;26.30;49.50;;;;;;5059973;28;20102;-62
2023/09/22 07:11:12;;;;;;;17.90;8.75;;;26.30;49.30;;;;;;5059652;28;20631;-61
2023/09/22 07:13:42;;;;;;;22.40;10.48;;;26.30;49.30;;;;;;5064065;28;20523;-64
2023/09/22 07:16:09;;;;;;;22.40;9.45;;;26.30;49.20;;;;;;5064681;28;20048;-63
2023/09/22 07:18:36;;;;;;;17.60;8.88;;;26.30;49.10;;;;;;5062191;28;20130;-63
2023/09/22 07:21:02;;;;;;;24.55;9.68;;;26.30;49.00;;;;;;5062980;28;20046;-62
2023/09/22 07:23:32;;;;;;;21.15;10.13;;;26.40;50.10;;;;;;5060371;28;20515;-62
2023/09/22 07:26:09;;;;;;;29.65;13.32;;;26.30;50.00;;;;;;5062642;28;20046;-59
2023/09/22 07:28:36;;;;;;;26.10;12.57;;;26.20;49.70;;;;;;5061027;28;20047;-62
2023/09/22 07:31:13;;;;;;;21.60;10.40;;;26.20;49.90;;;;;;5062326;28;20409;-63
2023/09/22 07:33:40;;;;;;;23.27;10.45;;;26.10;50.10;;;;;;5058025;28;20060;-64
2023/09/22 07:36:10;;;;;;;35.40;10.43;;;26.00;50.10;;;;;;5063267;28;21472;-62
2023/09/22 07:38:36;;;;;;;23.92;10.35;;;26.00;50.20;;;;;;5060536;28;20054;-63
2023/09/22 07:41:03;;;;;;;21.00;9.90;;;26.00;50.00;;;;;;5054842;28;20622;-62
2023/09/22 07:43:29;;;;;;;31.60;11.00;;;26.00;49.90;;;;;;5061394;28;20551;-63
2023/09/22 07:46:03;;;;;;;22.17;10.18;;;26.00;50.10;;;;;;5062799;28;20068;-61
2023/09/22 07:48:30;;;;;;;18.95;10.25;;;26.00;50.00;;;;;;5059908;28;20053;-62
2023/09/22 07:50:58;;;;;;;21.52;9.98;;;26.00;50.10;;;;;;5060729;28;20048;-63
2023/09/22 07:53:25;;;;;;;28.50;11.20;;;26.10;50.00;;;;;;5059197;28;20073;-63
2023/09/22 07:55:55;;;;;;;23.25;10.68;;;26.00;50.00;;;;;;5061549;28;20416;-63
2023/09/22 07:58:22;;;;;;;29.65;11.10;;;26.00;50.90;;;;;;5059912;28;20055;-63
2023/09/22 08:00:49;;;;;;;29.38;10.88;;;26.00;50.20;;;;;;5060407;28;20585;-64
2023/09/22 08:03:18;;;;;;;22.58;10.57;;;26.00;50.10;;;;;;5059585;28;20069;-61
2023/09/22 08:05:45;;;;;;;29.48;10.65;;;25.90;51.20;;;;;;5058933;28;20135;-63
2023/09/22 08:08:17;;;;;;;27.95;10.85;;;25.90;51.50;;;;;;5062835;28;20044;-62
2023/09/22 08:10:44;;;;;;;26.65;10.77;;;25.80;51.80;;;;;;5059403;28;20047;-62
2023/09/22 08:13:10;;;;;;;30.30;10.98;;;25.70;51.70;;;;;;5058362;28;20055;-63
2023/09/22 08:15:37;;;;;;;30.15;11.32;;;25.60;51.50;;;;;;5059263;28;20136;-62
2023/09/22 08:18:10;;;;;;;33.88;10.82;;;25.70;51.40;;;;;;5062766;28;20090;-63
2023/09/22 08:20:37;;;;;;;33.78;11.75;;;25.70;51.20;;;;;;5061149;28;20045;-62
2023/09/22 08:23:04;;;;;;;19.98;10.02;;;25.70;51.20;;;;;;5054394;28;20043;-58
2023/09/22 08:25:31;;;;;;;24.40;11.23;;;25.70;50.80;;;;;;5058701;28;20051;-62
2023/09/22 08:27:58;;;;;;;29.10;11.95;;;25.70;50.80;;;;;;5058513;28;20513;-63
2023/09/22 08:30:25;;;;;;;24.95;10.52;;;25.70;51.20;;;;;;5057865;28;20127;-62
2023/09/22 08:32:51;;;;;;;25.77;9.63;;;25.60;51.00;;;;;;5058809;28;20045;-62
2023/09/22 08:35:18;;;;;;;26.15;10.80;;;25.60;50.70;;;;;;5060197;28;20046;-64
2023/09/22 08:37:45;;;;;;;22.90;10.05;;;25.60;52.00;;;;;;5061479;28;20103;-62
2023/09/22 08:40:16;;;;;;;26.98;9.85;;;25.60;51.60;;;;;;5058880;28;20593;-61
2023/09/22 08:42:45;;;;;;;16.65;9.00;;;25.60;51.10;;;;;;5058483;28;20132;-62
2023/09/22 08:45:12;;;;;;;20.77;9.07;;;25.60;50.80;;;;;;5057241;28;20059;-63
2023/09/22 08:47:40;;;;;;;26.65;8.95;;;25.60;50.80;;;;;;5056645;28;20040;-62
2023/09/22 08:50:19;;;;;;;21.30;9.52;;;25.50;50.80;;;;;;5060201;28;20043;-61
2023/09/22 08:52:49;;;;;;;22.65;9.48;;;25.50;50.80;;;;;;5057264;28;20042;-64
2023/09/22 08:55:15;;;;;;;20.17;9.32;;;25.50;50.80;;;;;;5057831;28;20050;-62
2023/09/22 08:57:46;;;;;;;22.35;9.00;;;25.40;50.40;;;;;;5057597;28;20074;-61
2023/09/22 09:00:26;;;;;;;15.18;8.60;;;25.30;51.10;;;;;;5055759;28;20080;-62
2023/09/22 09:02:57;;;;;;;19.48;8.45;;;25.20;51.10;;;;;;5053429;28;20084;-66
2023/09/22 09:05:32;;;;;;;18.63;8.82;;;25.30;50.80;;;;;;5060521;28;20153;-60
2023/09/22 09:08:22;;;;;;;17.75;9.40;;;25.30;50.90;;;;;;5060941;28;20055;-63
2023/09/22 09:10:49;;;;;;;16.17;9.07;;;25.20;50.40;;;;;;5055700;28;20049;-62
2023/09/22 09:13:19;;;;;;;14.90;8.43;;;25.10;50.50;;;;;;5056892;28;20098;-62
2023/09/22 09:15:47;;;;;;;16.33;9.45;;;25.10;50.40;;;;;;5060679;28;20037;-62
2023/09/22 09:18:23;;;;;;;23.33;9.20;;;25.10;50.80;;;;;;5058245;28;20042;-62
2023/09/22 09:21:09;;;;;;;19.88;8.13;;;25.10;50.30;;;;;;5054709;28;20039;-63
2023/09/22 09:23:36;;;;;;;20.77;9.00;;;25.10;50.20;;;;;;5060096;28;20642;-63
2023/09/22 09:26:03;;;;;;;27.98;9.13;;;25.10;50.40;;;;;;5059571;28;20047;-64
2023/09/22 09:28:30;;;;;;;18.95;8.93;;;25.10;50.70;;;;;;5058809;28;20036;-62
2023/09/22 09:30:58;;;;;;;20.60;9.15;;;25.10;50.80;;;;;;5060066;28;20056;-62
2023/09/22 09:33:27;;;;;;;23.02;9.70;;;25.10;50.80;;;;;;5055476;28;20070;-62
2023/09/22 09:35:55;;;;;;;21.52;9.68;;;25.10;50.50;;;;;;5056593;28;20049;-64
2023/09/22 09:38:28;;;;;;;16.05;8.25;;;25.00;50.20;;;;;;5056665;28;20353;-63
2023/09/22 09:40:56;;;;;;;20.05;8.93;;;25.10;50.60;;;;;;5056263;28;20106;-62
2023/09/22 09:43:23;;;;;;;24.25;9.13;;;25.00;50.90;;;;;;5063970;28;20094;-62
2023/09/22 09:45:56;;;;;;;20.00;9.32;;;25.10;50.50;;;;;;5064137;28;20043;-63
2023/09/22 09:48:24;;;;;;;23.65;8.80;;;25.00;50.50;;;;;;5060558;28;20078;-61
2023/09/22 09:51:01;;;;;;;23.02;9.73;;;25.10;51.10;;;;;;5060019;28;20447;-62
2023/09/22 09:53:31;;;;;;;21.65;8.82;;;24.90;51.40;;;;;;5064507;28;20052;-62
2023/09/22 09:56:05;;;;;;;18.05;9.85;;;24.90;51.20;;;;;;5065987;28;20119;-63
2023/09/22 09:58:34;;;;;;;18.83;8.20;;;24.90;50.80;;;;;;5060851;28;20094;-62
2023/09/22 10:01:05;;;;;;;17.25;9.20;;;24.90;50.70;;;;;;5060962;28;20459;-62
2023/09/22 10:03:33;;;;;;;18.42;9.25;;;24.80;50.80;;;;;;5064661;28;20110;-61
2023/09/22 10:06:07;;;;;;;19.55;8.80;;;24.90;51.10;;;;;;5067521;28;20102;-62
2023/09/22 10:08:33;;;;;;;22.48;9.38;;;24.90;51.30;;;;;;5061551;28;20040;-63
2023/09/22 10:11:03;;;;;;;22.75;9.25;;;24.80;51.30;;;;;;5067967;28;20041;-62
2023/09/22 10:13:30;;;;;;;22.85;8.90;;;24.70;51.30;;;;;;5054348;28;20054;-62
2023/09/22 10:16:04;;;;;;;25.13;9.10;;;24.80;51.90;;;;;;5058341;28;20062;-62
2023/09/22 10:18:51;;;;;;;16.83;9.27;;;24.80;51.80;;;;;;5058506;28;20052;-62
2023/09/22 10:21:30;;;;;;;25.98;9.85;;;24.70;52.50;;;;;;5059715;28;20061;-63
2023/09/22 10:24:15;;;;;;;22.27;9.85;;;24.60;51.80;;;;;;5060570;28;20118;-66
2023/09/22 10:26:57;;;;;;;22.77;9.55;;;24.70;52.20;;;;;;5063455;28;20058;-60
2023/09/22 10:29:33;;;;;;;20.38;9.27;;;24.80;52.30;;;;;;5062960;28;20036;-62
2023/09/22 10:32:26;;;;;;;22.55;8.27;;;24.90;51.60;;;;;;5061146;28;20412;-60
2023/09/22 10:35:03;;;;;;;21.38;8.85;;;25.10;51.40;;;;;;5059552;28;20512;-62
2023/09/22 10:37:33;;;;;;;18.33;8.50;;;25.20;51.70;;;;;;5058213;28;20065;-63
2023/09/22 10:40:15;;;;;;;23.92;9.38;;;25.30;51.10;;;;;;5059170;28;20047;-63
2023/09/22 10:42:46;;;;;;;17.30;9.57;;;25.40;50.90;;;;;;5058391;28;20528;-63
2023/09/22 10:45:14;;;;;;;23.58;9.25;;;25.60;50.40;;;;;;5060057;28;20066;-63
2023/09/22 10:47:47;;;;;;;19.20;8.82;;;25.60;50.10;;;;;;5060363;28;20045;-64
2023/09/22 10:50:18;;;;;;;23.23;9.90;;;25.60;50.40;;;;;;5059304;28;20034;-63
2023/09/22 10:53:02;;;;;;;22.65;8.68;;;25.60;50.10;;;;;;5059469;28;20091;-64
2023/09/22 10:55:37;;;;;;;21.15;9.30;;;25.60;50.90;;;;;;5062049;28;20052;-63
2023/09/22 10:58:05;;;;;;;25.25;9.38;;;25.70;50.30;;;;;;5058261;28;20054;-62
2023/09/22 11:00:35;;;;;;;19.55;9.60;;;25.60;50.00;;;;;;5062961;28;20517;-63
2023/09/22 11:03:19;;;;;;;21.33;9.43;;;25.70;50.00;;;;;;5059505;28;20049;-62
2023/09/22 11:06:00;;;;;;;19.98;9.13;;;25.60;50.30;;;;;;5064754;28;20051;-64
2023/09/22 11:08:27;;;;;;;26.88;9.60;;;25.50;50.70;;;;;;5060839;28;20049;-65
2023/09/22 11:10:55;;;;;;;25.77;9.98;;;25.60;51.20;;;;;;5061078;28;20090;-63
2023/09/22 11:13:22;;;;;;;25.08;10.00;;;25.60;51.10;;;;;;5062563;28;20136;-64
2023/09/22 11:15:57;;;;;;;33.10;10.98;;;25.60;50.60;;;;;;5064649;28;20531;-65
2023/09/22 11:18:35;;;;;;;21.25;9.90;;;25.60;50.90;;;;;;5061624;28;20047;-63
2023/09/22 11:21:05;;;;;;;25.05;10.05;;;25.60;51.20;;;;;;5062398;28;20133;-64
2023/09/22 11:23:35;;;;;;;39.40;10.13;;;25.60;51.10;;;;;;5063407;28;20057;-63
2023/09/22 11:26:09;;;;;;;18.33;10.05;;;25.70;51.40;;;;;;5060371;28;20587;-64
2023/09/22 11:28:43;;;;;;;23.63;11.38;;;25.70;50.40;;;;;;5062502;28;20042;-65
2023/09/22 11:31:14;;;;;;;19.40;9.15;;;25.60;50.70;;;;;;5058080;28;20040;-63
2023/09/22 11:33:41;;;;;;;24.67;10.35;;;25.60;51.10;;;;;;5061701;28;20057;-64
2023/09/22 11:36:09;;;;;;;27.33;9.65;;;25.60;51.80;;;;;;5057420;28;20060;-64
2023/09/22 11:38:39;;;;;;;23.38;10.45;;;25.60;51.70;;;;;;5062184;28;20063;-63
2023/09/22 11:41:09;;;;;;;18.42;10.35;;;25.50;51.10;;;;;;5057069;28;20047;-63
2023/09/22 11:43:43;;;;;;;23.20;10.10;;;25.60;51.60;;;;;;5061976;28;20100;-62
2023/09/22 11:46:15;;;;;;;20.73;9.77;;;25.60;51.60;;;;;;5058319;28;20044;-62
2023/09/22 11:49:04;;;;;;;33.10;11.27;;;25.60;51.20;;;;;;5061061;28;20055;-61
2023/09/22 11:51:52;;;;;;;20.38;10.30;;;25.60;51.30;;;;;;5055899;28;20591;-63
2023/09/22 11:54:20;;;;;;;22.58;10.10;;;25.60;50.90;;;;;;5058283;28;20040;-63
2023/09/22 11:56:47;;;;;;;27.40;10.70;;;25.60;50.60;;;;;;5058261;28;20069;-63
2023/09/22 11:59:26;;;;;;;29.33;11.15;;;25.50;50.90;;;;;;5058855;28;20602;-64
2023/09/22 12:01:53;;;;;;;28.80;12.23;;;25.50;50.90;;;;;;5057542;28;20055;-63
2023/09/22 12:04:19;;;;;;;28.38;10.90;;;25.50;51.10;;;;;;5062575;28;20196;-63
2023/09/22 12:06:46;;;;;;;27.05;11.65;;;25.30;51.00;;;;;;5058364;28;20044;-63
2023/09/22 12:09:13;;;;;;;28.33;11.52;;;25.20;51.80;;;;;;5056523;28;20048;-64
2023/09/22 12:11:41;;;;;;;26.08;10.90;;;25.10;51.90;;;;;;5060250;28;20046;-65
2023/09/22 12:14:08;;;;;;;23.50;11.30;;;25.20;53.00;;;;;;5060245;28;20138;-63
2023/09/22 12:16:35;;;;;;;29.27;11.68;;;25.30;52.70;;;;;;5059790;28;20455;-63
2023/09/22 12:19:03;;;;;;;25.95;10.98;;;25.30;52.50;;;;;;5060678;28;20052;-63
2023/09/22 12:21:31;;;;;;;26.10;11.07;;;25.30;52.40;;;;;;5058480;28;20060;-63
2023/09/22 12:23:58;;;;;;;23.35;12.15;;;25.20;52.00;;;;;;5058206;28;20074;-62
2023/09/22 12:26:25;;;;;;;26.48;11.38;;;25.10;51.60;;;;;;5059858;28;20117;-64
2023/09/22 12:28:51;;;;;;;21.23;11.07;;;25.10;51.70;;;;;;5059656;28;20136;-61
2023/09/22 12:31:19;;;;;;;20.13;10.23;;;25.20;51.50;;;;;;5057856;28;20050;-63
2023/09/22 12:33:46;;;;;;;30.75;11.77;;;25.20;51.20;;;;;;5059833;28;20041;-62
2023/09/22 12:36:15;;;;;;;28.75;11.77;;;25.10;51.20;;;;;;5058962;28;20050;-63
2023/09/22 12:38:42;;;;;;;27.02;11.93;;;25.00;51.90;;;;;;5057823;28;20121;-62